createdAt,value
2019-06-26T00:00:24.247Z,23.96
2019-06-26T00:02:52.952Z,24.06
2019-06-26T00:05:21.669Z,24.05
2019-06-26T00:07:50.436Z,23.97
2019-06-26T00:10:19.166Z,23.95
2019-06-26T00:12:47.897Z,23.82
2019-06-26T00:15:16.843Z,23.70
2019-06-26T00:17:45.564Z,23.72
2019-06-26T00:20:15.896Z,23.68
2019-06-26T00:22:44.632Z,23.75
2019-06-26T00:25:13.745Z,23.70
2019-06-26T00:27:42.510Z,23.59
2019-06-26T00:30:12.617Z,23.63
2019-06-26T00:32:41.322Z,23.69
2019-06-26T00:35:10.090Z,23.55
2019-06-26T00:37:38.802Z,23.41
2019-06-26T00:40:08.006Z,23.33
2019-06-26T00:42:36.721Z,23.30
2019-06-26T00:45:08.427Z,23.30
2019-06-26T00:47:37.190Z,23.19
2019-06-26T00:50:10.675Z,23.09
2019-06-26T00:52:39.379Z,23.00
2019-06-26T00:55:08.194Z,22.93
2019-06-26T00:57:37.019Z,22.84
2019-06-26T01:00:10.272Z,22.84
2019-06-26T01:02:39.085Z,22.75
2019-06-26T01:05:12.799Z,22.77
2019-06-26T01:07:41.514Z,22.86
2019-06-26T01:10:11.835Z,22.87
2019-06-26T01:12:40.581Z,22.81
2019-06-26T01:15:10.203Z,22.76
2019-06-26T01:17:38.967Z,22.73
2019-06-26T01:20:08.519Z,22.72
2019-06-26T01:22:37.235Z,22.77
2019-06-26T01:25:06.458Z,22.75
2019-06-26T01:27:35.177Z,22.68
2019-06-26T01:30:05.803Z,22.66
2019-06-26T01:32:34.656Z,22.76
2019-06-26T01:35:04.571Z,22.81
2019-06-26T01:37:33.385Z,22.89
2019-06-26T01:40:02.151Z,23.05
2019-06-26T01:42:30.870Z,23.13
2019-06-26T01:44:59.577Z,23.04
2019-06-26T01:47:28.287Z,22.87
2019-06-26T01:49:57.003Z,22.88
2019-06-26T01:52:25.750Z,22.95
2019-06-26T01:54:54.471Z,23.01
2019-06-26T01:57:23.184Z,23.03
2019-06-26T01:59:51.938Z,23.09
2019-06-26T02:02:20.642Z,23.11
2019-06-26T02:04:49.354Z,23.13
2019-06-26T02:07:18.085Z,23.15
2019-06-26T02:09:46.802Z,23.02
2019-06-26T02:12:15.554Z,23.01
2019-06-26T02:14:44.267Z,23.08
2019-06-26T02:17:12.973Z,23.11
2019-06-26T02:19:41.705Z,23.18
2019-06-26T02:22:10.414Z,23.18
2019-06-26T02:24:39.156Z,23.17
2019-06-26T02:27:07.964Z,23.13
2019-06-26T02:29:36.679Z,23.23
2019-06-26T02:32:05.390Z,23.24
2019-06-26T02:34:34.096Z,23.28
2019-06-26T02:37:02.858Z,23.29
2019-06-26T02:39:31.566Z,23.24
2019-06-26T02:42:00.290Z,23.24
2019-06-26T02:44:28.995Z,23.23
2019-06-26T02:47:17.589Z,23.14
2019-06-26T02:49:28.173Z,23.06
2019-06-26T02:51:56.892Z,23.08
2019-06-26T02:54:25.606Z,22.97
2019-06-26T02:56:54.317Z,22.89
2019-06-26T02:59:23.019Z,22.87
2019-06-26T03:01:51.795Z,22.75
2019-06-26T03:04:20.497Z,22.82
2019-06-26T03:06:49.201Z,22.83
2019-06-26T03:09:17.922Z,22.81
2019-06-26T03:11:46.638Z,22.82
2019-06-26T03:14:15.413Z,22.79
2019-06-26T03:16:44.124Z,22.71
2019-06-26T03:19:12.831Z,22.60
2019-06-26T03:21:41.549Z,22.68
2019-06-26T03:24:10.255Z,22.59
2019-06-26T03:26:39.001Z,22.73
2019-06-26T03:29:07.709Z,22.59
2019-06-26T03:31:36.426Z,22.55
2019-06-26T03:34:05.245Z,22.63
2019-06-26T03:36:33.952Z,22.57
2019-06-26T03:39:02.703Z,22.75
2019-06-26T03:41:31.410Z,22.86
2019-06-26T03:44:00.163Z,22.92
2019-06-26T03:46:28.858Z,23.02
2019-06-26T03:48:57.769Z,23.05
2019-06-26T03:51:26.533Z,23.04
2019-06-26T03:53:55.246Z,23.08
2019-06-26T03:56:23.954Z,23.18
2019-06-26T03:58:52.675Z,23.29
2019-06-26T04:01:21.384Z,23.40
2019-06-26T04:03:50.099Z,23.38
2019-06-26T04:06:18.888Z,23.44
2019-06-26T04:08:47.654Z,23.68
2019-06-26T04:11:16.384Z,23.78
2019-06-26T04:13:45.093Z,23.91
2019-06-26T04:16:13.825Z,24.09
2019-06-26T04:18:42.538Z,24.31
2019-06-26T04:21:11.307Z,24.35
2019-06-26T04:23:40.017Z,24.59
2019-06-26T04:26:08.730Z,24.62
2019-06-26T04:28:37.449Z,24.75
2019-06-26T04:31:06.154Z,24.79
2019-06-26T04:33:34.904Z,25.06
2019-06-26T04:36:03.661Z,25.08
2019-06-26T04:38:32.393Z,25.60
2019-06-26T04:41:01.104Z,26.09
2019-06-26T04:43:29.812Z,26.39
2019-06-26T04:45:58.888Z,26.32
2019-06-26T04:48:27.846Z,26.12
2019-06-26T04:50:56.576Z,26.01
2019-06-26T04:53:25.288Z,25.88
2019-06-26T04:55:53.989Z,25.72
2019-06-26T04:58:22.750Z,25.67
2019-06-26T05:00:51.456Z,25.92
2019-06-26T05:03:20.176Z,26.03
2019-06-26T05:05:48.885Z,26.17
2019-06-26T05:08:17.597Z,26.27
2019-06-26T05:10:46.367Z,26.65
2019-06-26T05:13:15.079Z,26.65
2019-06-26T05:15:43.782Z,26.87
2019-06-26T05:18:12.501Z,27.09
2019-06-26T05:20:41.208Z,27.37
2019-06-26T05:23:09.972Z,27.29
2019-06-26T05:25:38.681Z,27.21
2019-06-26T05:28:08.571Z,27.28
2019-06-26T05:30:37.825Z,27.30
2019-06-26T05:33:06.529Z,27.22
2019-06-26T05:35:35.509Z,27.05
2019-06-26T05:38:04.382Z,27.05
2019-06-26T05:40:33.095Z,27.23
2019-06-26T05:43:01.812Z,27.35
2019-06-26T05:45:30.536Z,27.52
2019-06-26T05:47:59.237Z,27.83
2019-06-26T05:50:28.101Z,27.67
2019-06-26T05:52:56.833Z,27.47
2019-06-26T05:55:25.547Z,27.48
2019-06-26T05:57:54.297Z,27.42
2019-06-26T06:00:23.024Z,27.36
2019-06-26T06:02:54.018Z,27.35
2019-06-26T06:05:22.356Z,27.28
2019-06-26T06:07:51.050Z,27.18
2019-06-26T06:10:19.901Z,27.13
2019-06-26T06:12:48.610Z,27.18
2019-06-26T06:15:19.226Z,27.31
2019-06-26T06:17:48.488Z,27.31
2019-06-26T06:20:20.152Z,27.28
2019-06-26T06:22:48.918Z,27.29
2019-06-26T06:25:17.623Z,27.41
2019-06-26T06:27:46.332Z,27.66
2019-06-26T06:30:15.304Z,27.74
2019-06-26T06:32:43.992Z,27.76
2019-06-26T06:35:13.006Z,27.80
2019-06-26T06:37:41.716Z,28.00
2019-06-26T06:40:10.929Z,27.84
2019-06-26T06:42:39.682Z,28.03
2019-06-26T06:45:08.985Z,28.26
2019-06-26T06:47:37.693Z,28.10
2019-06-26T06:50:06.712Z,28.16
2019-06-26T06:52:35.443Z,28.36
2019-06-26T06:55:07.781Z,28.63
2019-06-26T06:57:36.529Z,28.61
2019-06-26T07:00:09.065Z,28.74
2019-06-26T07:02:37.777Z,28.76
2019-06-26T07:05:07.992Z,28.60
2019-06-26T07:07:36.753Z,28.72
2019-06-26T07:10:07.307Z,28.99
2019-06-26T07:12:36.011Z,28.89
2019-06-26T07:15:07.678Z,28.87
2019-06-26T07:17:36.488Z,28.98
2019-06-26T07:20:06.612Z,29.34
2019-06-26T07:22:35.348Z,29.52
2019-06-26T07:25:04.857Z,29.80
2019-06-26T07:27:33.575Z,30.36
2019-06-26T07:30:02.343Z,30.59
2019-06-26T07:32:31.090Z,30.76
2019-06-26T07:34:59.809Z,30.50
2019-06-26T07:37:28.543Z,30.56
2019-06-26T07:40:01.507Z,30.64
2019-06-26T07:42:27.716Z,30.42
2019-06-26T07:44:56.427Z,30.72
2019-06-26T07:47:41.507Z,30.91
2019-06-26T07:49:55.575Z,30.67
2019-06-26T07:52:24.284Z,30.84
2019-06-26T07:54:53.087Z,30.90
2019-06-26T07:57:21.850Z,30.68
2019-06-26T07:59:50.550Z,30.62
2019-06-26T08:02:19.320Z,30.64
2019-06-26T08:04:48.038Z,30.96
2019-06-26T08:07:16.748Z,31.19
2019-06-26T08:09:45.544Z,31.40
2019-06-26T08:12:14.258Z,31.28
2019-06-26T08:14:43.023Z,31.48
2019-06-26T08:17:11.739Z,31.69
2019-06-26T08:19:40.459Z,31.56
2019-06-26T08:22:09.172Z,31.81
2019-06-26T08:24:37.879Z,32.16
2019-06-26T08:27:06.651Z,32.22
2019-06-26T08:29:35.412Z,32.23
2019-06-26T08:32:04.133Z,31.78
2019-06-26T08:34:32.970Z,31.42
2019-06-26T08:37:01.685Z,31.25
2019-06-26T08:39:30.452Z,31.22
2019-06-26T08:41:59.209Z,31.29
2019-06-26T08:44:27.927Z,31.32
2019-06-26T08:46:56.673Z,31.72
2019-06-26T08:49:26.661Z,31.77
2019-06-26T08:51:55.889Z,32.05
2019-06-26T08:54:24.618Z,31.96
2019-06-26T08:56:53.391Z,31.68
2019-06-26T08:59:22.525Z,31.69
2019-06-26T09:01:51.233Z,31.80
2019-06-26T09:04:19.940Z,31.83
2019-06-26T09:06:48.671Z,31.81
2019-06-26T09:09:17.376Z,31.90
2019-06-26T09:11:46.121Z,31.41
2019-06-26T09:14:14.838Z,30.69
2019-06-26T09:16:43.575Z,30.51
2019-06-26T09:19:12.290Z,31.21
2019-06-26T09:21:40.806Z,31.72
2019-06-26T09:24:09.559Z,32.10
2019-06-26T09:26:38.268Z,32.04
2019-06-26T09:29:07.007Z,32.19
2019-06-26T09:31:35.728Z,32.34
2019-06-26T09:34:04.637Z,32.31
2019-06-26T09:36:33.368Z,31.83
2019-06-26T09:39:02.075Z,32.59
2019-06-26T09:41:30.834Z,33.26
2019-06-26T09:43:59.550Z,33.50
2019-06-26T09:46:28.334Z,33.55
2019-06-26T09:48:57.113Z,33.84
2019-06-26T09:51:25.825Z,33.49
2019-06-26T09:53:54.541Z,32.50
2019-06-26T09:56:23.288Z,31.83
2019-06-26T09:58:52.006Z,32.26
2019-06-26T10:01:20.713Z,32.98
2019-06-26T10:03:49.432Z,33.37
2019-06-26T10:06:18.141Z,34.03
2019-06-26T10:08:46.901Z,34.34
2019-06-26T10:11:15.616Z,34.54
2019-06-26T10:13:44.331Z,33.63
2019-06-26T10:16:13.097Z,32.72
2019-06-26T10:18:41.810Z,31.44
2019-06-26T10:21:10.521Z,30.84
2019-06-26T10:23:39.253Z,30.53
2019-06-26T10:26:08.023Z,30.03
2019-06-26T10:28:36.803Z,29.92
2019-06-26T10:31:05.520Z,30.30
2019-06-26T10:33:34.233Z,30.20
2019-06-26T10:36:02.987Z,30.60
2019-06-26T10:38:31.700Z,31.10
2019-06-26T10:41:00.415Z,31.82
2019-06-26T10:43:29.132Z,32.62
2019-06-26T10:45:57.849Z,33.29
2019-06-26T10:48:26.626Z,33.24
2019-06-26T10:50:58.909Z,33.30
2019-06-26T10:53:25.769Z,32.91
2019-06-26T10:55:54.541Z,33.50
2019-06-26T10:58:23.256Z,33.86
2019-06-26T11:00:51.970Z,33.53
2019-06-26T11:03:20.689Z,33.22
2019-06-26T11:05:49.402Z,32.71
2019-06-26T11:08:18.161Z,32.89
2019-06-26T11:10:46.929Z,32.52
2019-06-26T11:13:15.680Z,31.76
2019-06-26T11:15:44.398Z,31.64
2019-06-26T11:18:13.163Z,31.95
2019-06-26T11:20:42.251Z,32.28
2019-06-26T11:23:10.970Z,32.52
2019-06-26T11:25:39.786Z,32.97
2019-06-26T11:28:08.487Z,32.63
2019-06-26T11:30:37.299Z,31.92
2019-06-26T11:33:06.062Z,32.04
2019-06-26T11:35:34.772Z,31.36
2019-06-26T11:38:03.484Z,31.36
2019-06-26T11:40:32.203Z,30.74
2019-06-26T11:43:00.971Z,30.68
2019-06-26T11:45:29.748Z,30.93
2019-06-26T11:47:58.465Z,31.32
2019-06-26T11:50:27.182Z,31.48
2019-06-26T11:52:55.910Z,31.03
2019-06-26T11:55:24.919Z,31.11
2019-06-26T11:57:53.638Z,31.09
2019-06-26T12:00:24.714Z,30.94
2019-06-26T12:02:53.418Z,30.65
2019-06-26T12:05:22.943Z,30.45
2019-06-26T12:07:51.683Z,30.11
2019-06-26T12:10:20.940Z,30.11
2019-06-26T12:12:49.689Z,29.78
2019-06-26T12:15:20.854Z,29.46
2019-06-26T12:17:49.667Z,28.55
2019-06-26T12:20:20.199Z,27.78
2019-06-26T12:22:48.914Z,27.88
2019-06-26T12:25:17.736Z,27.93
2019-06-26T12:27:46.436Z,28.18
2019-06-26T12:30:15.477Z,28.13
2019-06-26T12:33:01.649Z,28.53
2019-06-26T12:35:15.422Z,29.14
2019-06-26T12:37:44.133Z,29.66
2019-06-26T12:40:12.959Z,29.91
2019-06-26T12:42:41.797Z,30.38
2019-06-26T12:45:10.805Z,30.42
2019-06-26T12:47:39.517Z,30.27
2019-06-26T12:50:09.177Z,30.49
2019-06-26T12:52:37.885Z,30.36
2019-06-26T12:55:07.398Z,30.37
2019-06-26T12:57:36.122Z,30.17
2019-06-26T13:00:07.879Z,29.88
2019-06-26T13:02:36.658Z,29.40
2019-06-26T13:05:07.071Z,29.08
2019-06-26T13:07:35.878Z,28.88
2019-06-26T13:10:07.662Z,28.48
2019-06-26T13:12:37.132Z,28.23
2019-06-26T13:15:10.115Z,27.32
2019-06-26T13:17:38.835Z,26.93
2019-06-26T13:20:11.469Z,26.82
2019-06-26T13:22:40.208Z,26.53
2019-06-26T13:25:09.546Z,25.88
2019-06-26T13:27:38.239Z,24.86
2019-06-26T13:30:08.356Z,24.24
2019-06-26T13:32:37.066Z,24.28
2019-06-26T13:35:07.107Z,24.46
2019-06-26T13:37:35.810Z,24.56
2019-06-26T13:40:06.566Z,24.78
2019-06-26T13:42:35.268Z,24.76
2019-06-26T13:45:06.123Z,24.78
2019-06-26T13:47:34.872Z,24.38
2019-06-26T13:50:05.198Z,23.45
2019-06-26T13:52:33.899Z,23.39
2019-06-26T13:55:02.618Z,23.35
2019-06-26T13:57:31.334Z,23.49
2019-06-26T14:00:00.091Z,23.75
2019-06-26T14:02:28.832Z,23.87
2019-06-26T14:04:57.518Z,24.04
2019-06-26T14:07:26.236Z,23.84
2019-06-26T14:09:54.945Z,23.39
2019-06-26T14:12:23.698Z,22.62
2019-06-26T14:14:57.712Z,22.07
2019-06-26T14:17:22.850Z,22.13
2019-06-26T14:19:51.605Z,22.37
2019-06-26T14:22:20.337Z,22.60
2019-06-26T14:24:49.023Z,22.81
2019-06-26T14:27:17.746Z,23.09
2019-06-26T14:29:46.441Z,23.31
2019-06-26T14:32:15.192Z,23.62
2019-06-26T14:34:43.941Z,23.96
2019-06-26T14:37:12.650Z,24.31
2019-06-26T14:39:41.369Z,24.57
2019-06-26T14:42:10.087Z,24.93
2019-06-26T14:44:38.815Z,25.31
2019-06-26T14:47:07.516Z,25.78
2019-06-26T14:49:36.224Z,26.32
2019-06-26T14:52:04.936Z,26.67
2019-06-26T14:54:33.637Z,26.66
2019-06-26T14:57:02.407Z,26.30
2019-06-26T14:59:31.113Z,26.49
2019-06-26T15:01:59.819Z,26.24
2019-06-26T15:04:28.545Z,25.97
2019-06-26T15:06:57.244Z,25.82
2019-06-26T15:09:26.013Z,25.69
2019-06-26T15:11:54.724Z,25.64
2019-06-26T15:14:23.433Z,25.91
2019-06-26T15:16:52.192Z,26.11
2019-06-26T15:19:20.906Z,26.17
2019-06-26T15:21:58.440Z,26.25
2019-06-26T15:24:20.103Z,26.52
2019-06-26T15:26:48.813Z,26.62
2019-06-26T15:29:17.529Z,26.80
2019-06-26T15:31:46.251Z,26.92
2019-06-26T15:34:14.966Z,26.76
2019-06-26T15:36:43.742Z,26.64
2019-06-26T15:39:12.426Z,26.81
2019-06-26T15:41:41.139Z,26.89
2019-06-26T15:44:09.914Z,26.93
2019-06-26T15:46:38.634Z,26.96
2019-06-26T15:49:07.345Z,26.95
2019-06-26T15:51:36.073Z,26.81
2019-06-26T15:54:04.795Z,26.97
2019-06-26T15:56:33.559Z,26.89
2019-06-26T15:59:02.281Z,26.93
2019-06-26T16:01:30.991Z,26.91
2019-06-26T16:03:59.717Z,26.51
2019-06-26T16:06:29.499Z,26.63
2019-06-26T16:08:58.243Z,26.62
2019-06-26T16:11:26.957Z,26.52
2019-06-26T16:13:55.670Z,26.37
2019-06-26T16:16:25.260Z,26.25
2019-06-26T16:18:58.459Z,25.95
2019-06-26T16:21:27.176Z,25.72
2019-06-26T16:23:55.903Z,25.67
2019-06-26T16:26:25.784Z,25.52
2019-06-26T16:28:54.531Z,25.76
2019-06-26T16:31:23.241Z,25.35
2019-06-26T16:33:51.961Z,25.29
2019-06-26T16:36:20.698Z,25.29
2019-06-26T16:38:49.412Z,25.15
2019-06-26T16:41:18.186Z,25.42
2019-06-26T16:43:46.901Z,25.56
2019-06-26T16:46:15.612Z,25.49
2019-06-26T16:48:44.381Z,25.37
2019-06-26T16:51:13.098Z,25.43
2019-06-26T16:53:41.809Z,25.46
2019-06-26T16:56:10.526Z,25.51
2019-06-26T16:58:39.235Z,25.48
2019-06-26T17:01:07.997Z,25.40
2019-06-26T17:03:36.706Z,25.35
2019-06-26T17:06:05.512Z,25.35
2019-06-26T17:08:34.267Z,25.29
2019-06-26T17:11:03.080Z,25.24
2019-06-26T17:13:31.774Z,25.30
2019-06-26T17:16:00.495Z,25.32
2019-06-26T17:18:29.218Z,25.36
2019-06-26T17:20:57.971Z,25.30
2019-06-26T17:23:26.699Z,25.25
2019-06-26T17:25:55.444Z,25.22
2019-06-26T17:28:24.201Z,25.27
2019-06-26T17:30:53.114Z,25.15
2019-06-26T17:33:21.852Z,24.93
2019-06-26T17:35:50.595Z,24.75
2019-06-26T17:38:19.307Z,24.67
2019-06-26T17:40:48.063Z,24.64
2019-06-26T17:43:16.768Z,24.63
2019-06-26T17:45:45.490Z,24.63
2019-06-26T17:48:14.228Z,24.50
2019-06-26T17:50:42.944Z,24.50
2019-06-26T17:53:21.083Z,24.47
2019-06-26T17:55:42.153Z,24.39
2019-06-26T17:58:10.865Z,24.37
2019-06-26T18:00:39.721Z,24.35
2019-06-26T18:03:08.433Z,24.32
2019-06-26T18:05:37.143Z,24.29
2019-06-26T18:08:05.887Z,24.26
2019-06-26T18:10:34.593Z,24.19
2019-06-26T18:13:03.357Z,24.14
2019-06-26T18:15:32.066Z,24.15
2019-06-26T18:18:00.777Z,24.21
2019-06-26T18:20:30.940Z,24.11
2019-06-26T18:23:07.248Z,23.97
2019-06-26T18:25:30.103Z,23.58
2019-06-26T18:27:58.816Z,23.34
2019-06-26T18:30:27.532Z,23.31
2019-06-26T18:32:56.248Z,23.30
2019-06-26T18:35:24.958Z,23.36
2019-06-26T18:37:53.678Z,23.41
2019-06-26T18:40:22.409Z,23.38
2019-06-26T18:42:51.131Z,23.31
2019-06-26T18:45:19.851Z,23.26
2019-06-26T18:47:48.682Z,23.34
2019-06-26T18:50:17.392Z,23.42
2019-06-26T18:52:46.114Z,23.40
2019-06-26T18:55:14.966Z,23.31
2019-06-26T18:57:43.678Z,23.22
2019-06-26T19:00:12.589Z,23.24
2019-06-26T19:02:41.307Z,23.35
2019-06-26T19:05:10.111Z,23.52
2019-06-26T19:07:38.876Z,23.66
2019-06-26T19:10:08.694Z,23.72
2019-06-26T19:12:37.401Z,23.63
2019-06-26T19:15:07.433Z,23.78
2019-06-26T19:17:36.139Z,23.87
2019-06-26T19:20:07.771Z,23.61
2019-06-26T19:22:36.480Z,23.58
2019-06-26T19:25:07.274Z,23.60
2019-06-26T19:27:35.982Z,23.74
2019-06-26T19:30:07.646Z,23.73
2019-06-26T19:32:37.536Z,23.73
2019-06-26T19:35:18.082Z,23.73
2019-06-26T19:37:37.363Z,23.73
2019-06-26T19:40:08.762Z,23.69
2019-06-26T19:42:36.782Z,23.69
2019-06-26T19:45:09.591Z,23.70
2019-06-26T19:47:38.303Z,23.75
2019-06-26T19:50:08.317Z,23.78
2019-06-26T19:52:37.319Z,23.83
2019-06-26T19:55:06.342Z,23.91
2019-06-26T19:57:35.095Z,23.97
2019-06-26T20:00:05.845Z,23.98
2019-06-26T20:02:34.543Z,24.04
2019-06-26T20:05:11.740Z,23.87
2019-06-26T20:07:53.086Z,23.62
2019-06-26T20:10:36.502Z,23.70
2019-06-26T20:13:19.139Z,23.85
2019-06-26T20:15:57.046Z,23.94
2019-06-26T20:18:28.492Z,23.95
2019-06-26T20:21:01.673Z,23.94
2019-06-26T20:23:35.526Z,23.98
2019-06-26T20:26:13.235Z,23.96
2019-06-26T20:28:50.436Z,23.97
2019-06-26T20:31:22.488Z,23.88
2019-06-26T20:33:53.786Z,23.48
2019-06-26T20:42:08.504Z,22.94
2019-06-26T20:44:41.834Z,23.00
2019-06-26T20:47:23.132Z,23.07
2019-06-26T20:49:58.327Z,23.11
2019-06-26T20:52:36.574Z,23.26
2019-06-26T21:00:50.685Z,23.46
2019-06-26T21:03:22.832Z,23.56
2019-06-26T21:05:53.322Z,23.56
2019-06-26T21:08:31.936Z,23.53
2019-06-26T21:11:05.951Z,23.31
2019-06-26T21:13:42.011Z,22.98
2019-06-26T21:16:13.845Z,22.80
2019-06-26T21:18:43.155Z,22.58
2019-06-26T21:21:17.901Z,22.45
2019-06-26T21:23:53.548Z,22.42
2019-06-26T21:26:30.697Z,22.27
2019-06-26T21:29:01.021Z,22.24
2019-06-26T21:31:32.792Z,22.29
2019-06-26T21:34:14.012Z,22.11
2019-06-26T21:37:05.326Z,21.92
2019-06-26T21:39:45.574Z,22.12
2019-06-26T21:42:17.999Z,22.26
2019-06-26T21:44:54.396Z,22.47
2019-06-26T21:47:32.602Z,22.66
2019-06-26T21:50:01.366Z,22.78
2019-06-26T21:52:30.108Z,22.54
2019-06-26T21:54:58.870Z,22.45
2019-06-26T21:57:27.579Z,22.50
2019-06-26T21:59:56.333Z,22.57
2019-06-26T22:02:25.049Z,22.68
2019-06-26T22:04:53.771Z,22.71
2019-06-26T22:07:22.611Z,22.68
2019-06-26T22:09:51.309Z,22.68
2019-06-26T22:12:20.374Z,22.66
2019-06-26T22:14:49.080Z,22.73
2019-06-26T22:17:17.787Z,22.67
2019-06-26T22:19:46.507Z,22.61
2019-06-26T22:22:15.214Z,22.53
2019-06-26T22:24:43.985Z,22.62
2019-06-26T22:27:12.897Z,22.46
2019-06-26T22:29:41.620Z,22.53
2019-06-26T22:32:10.342Z,22.42
2019-06-26T22:34:39.061Z,22.36
2019-06-26T22:37:07.829Z,22.37
2019-06-26T22:39:36.549Z,22.39
2019-06-26T22:42:05.257Z,22.44
2019-06-26T22:44:34.011Z,22.55
2019-06-26T22:47:02.719Z,22.61
2019-06-26T22:49:31.433Z,22.68
2019-06-26T22:52:00.151Z,22.69
2019-06-26T22:54:28.877Z,22.68
2019-06-26T22:56:57.657Z,22.70
2019-06-26T22:59:26.372Z,22.73
2019-06-26T23:01:55.093Z,22.66
2019-06-26T23:04:23.902Z,22.67
2019-06-26T23:06:52.670Z,22.68
2019-06-26T23:09:21.399Z,22.72
2019-06-26T23:11:50.121Z,22.83
2019-06-26T23:14:18.849Z,22.91
2019-06-26T23:16:47.579Z,22.94
2019-06-26T23:19:16.303Z,22.92
2019-06-26T23:21:45.069Z,22.92
2019-06-26T23:24:13.796Z,22.92
2019-06-26T23:26:42.519Z,22.91
2019-06-26T23:29:11.248Z,22.91
2019-06-26T23:31:39.964Z,22.76
2019-06-26T23:34:08.777Z,22.75
2019-06-26T23:36:37.531Z,22.67
2019-06-26T23:39:06.491Z,22.65
2019-06-26T23:41:35.247Z,22.54
2019-06-26T23:44:04.020Z,22.51
2019-06-26T23:46:32.806Z,22.42
2019-06-26T23:49:01.560Z,22.33
2019-06-26T23:51:30.438Z,22.34
2019-06-26T23:53:59.154Z,22.01
2019-06-26T23:56:40.067Z,21.79
2019-06-26T23:58:58.437Z,21.70
